Time;durP1;ratioP1;P1;durP2;ratioP2;P2;SDS_P1;SDS_P2;PMS_P1;PMS_P2;Temp;Humidity;BMP_temperature;BMP_pressure;BME280_temperature;BME280_humidity;BME280_pressure;Samples;Min_cycle;Max_cycle;Signal;HPM_P1;HPM_P2
2022/03/30 00:03:05;;;;;;;30.17;9.95;;;7.10;63.00;;;;;;9181402;19;20059;-68
2022/03/30 00:06:11;;;;;;;28.30;10.20;;;7.10;63.10;;;;;;9184366;19;20038;-67
2022/03/30 00:09:16;;;;;;;29.70;9.63;;;7.10;63.20;;;;;;9182175;19;20025;-67
2022/03/30 00:12:21;;;;;;;27.27;8.75;;;7.00;63.20;;;;;;9184191;19;20015;-66
2022/03/30 00:15:26;;;;;;;31.38;9.27;;;7.00;63.20;;;;;;9182549;19;20014;-66
2022/03/30 00:18:34;;;;;;;30.52;9.40;;;7.00;63.30;;;;;;9184026;19;20014;-67
2022/03/30 00:21:40;;;;;;;31.63;9.25;;;6.90;63.30;;;;;;9181890;19;20018;-65
2022/03/30 00:24:46;;;;;;;29.13;10.45;;;6.90;63.30;;;;;;9181583;19;20591;-66
2022/03/30 00:27:51;;;;;;;30.55;9.48;;;6.90;63.40;;;;;;9180422;19;20029;-67
2022/03/30 00:30:56;;;;;;;27.48;9.48;;;6.80;63.40;;;;;;9176724;19;20018;-68
2022/03/30 00:34:04;;;;;;;26.30;9.77;;;6.80;63.40;;;;;;9182889;19;20010;-67
2022/03/30 00:37:09;;;;;;;33.90;9.85;;;6.80;63.50;;;;;;9181610;19;20010;-67
2022/03/30 00:40:18;;;;;;;31.42;11.35;;;6.80;63.60;;;;;;9182176;19;20405;-66
2022/03/30 00:43:23;;;;;;;34.63;10.85;;;6.80;63.60;;;;;;9180802;19;20026;-68
2022/03/30 00:46:28;;;;;;;34.75;10.35;;;6.80;63.60;;;;;;9180617;19;20022;-66
2022/03/30 00:49:35;;;;;;;31.60;11.52;;;6.70;63.60;;;;;;9181886;19;20014;-68
2022/03/30 00:52:41;;;;;;;42.70;10.77;;;6.70;63.60;;;;;;9178524;19;20038;-66
2022/03/30 00:55:46;;;;;;;41.72;12.00;;;6.70;63.60;;;;;;9180182;19;20029;-67
2022/03/30 00:58:52;;;;;;;25.15;10.88;;;6.70;63.70;;;;;;9181539;19;20021;-67
2022/03/30 01:01:58;;;;;;;29.77;12.02;;;6.60;63.70;;;;;;9176535;19;20015;-67
2022/03/30 01:05:08;;;;;;;29.33;10.90;;;6.60;63.70;;;;;;9181549;19;20371;-68
2022/03/30 01:08:13;;;;;;;30.95;11.10;;;6.60;63.80;;;;;;9178204;19;20026;-67
2022/03/30 01:11:19;;;;;;;32.63;11.05;;;6.60;63.80;;;;;;9182133;19;20021;-65
2022/03/30 01:14:25;;;;;;;29.02;10.82;;;6.50;63.80;;;;;;9189324;19;20034;-66
2022/03/30 01:17:30;;;;;;;30.85;10.45;;;6.50;63.90;;;;;;9189335;19;20479;-67
2022/03/30 01:20:38;;;;;;;25.73;10.55;;;6.50;63.90;;;;;;9187842;19;20007;-67
2022/03/30 01:23:46;;;;;;;29.25;11.93;;;6.50;64.00;;;;;;9188272;19;20360;-66
2022/03/30 01:26:51;;;;;;;32.17;10.57;;;6.40;64.00;;;;;;9189696;19;20475;-67
2022/03/30 01:33:13;;;;;;;29.95;10.80;;;6.40;64.10;;;;;;9189920;19;20029;-65
2022/03/30 01:36:22;;;;;;;32.92;10.93;;;6.40;64.20;;;;;;9189016;19;20022;-66
2022/03/30 01:39:29;;;;;;;33.10;11.27;;;6.40;64.30;;;;;;9187785;19;20353;-67
2022/03/30 01:42:34;;;;;;;28.70;9.80;;;6.30;64.20;;;;;;9188294;19;20827;-66
2022/03/30 01:45:39;;;;;;;34.22;10.70;;;6.30;64.20;;;;;;9188396;19;20486;-67
2022/03/30 01:48:57;;;;;;;29.95;11.20;;;6.30;64.30;;;;;;9187349;19;20026;-68
2022/03/30 01:52:02;;;;;;;35.00;12.15;;;6.30;64.30;;;;;;9188868;19;20025;-67
2022/03/30 01:55:10;;;;;;;30.05;11.43;;;6.30;64.40;;;;;;9189276;19;20044;-67
2022/03/30 01:58:16;;;;;;;26.88;11.48;;;6.30;64.50;;;;;;9186646;19;20025;-67
2022/03/30 02:01:21;;;;;;;28.67;10.23;;;6.30;64.50;;;;;;9188748;19;20014;-67
2022/03/30 02:04:26;;;;;;;37.58;11.32;;;6.30;64.40;;;;;;9183415;19;20021;-67
2022/03/30 02:07:31;;;;;;;35.88;12.35;;;6.30;64.50;;;;;;9186082;19;20029;-68
2022/03/30 02:10:40;;;;;;;35.90;12.02;;;6.20;64.50;;;;;;9188094;19;20407;-67
2022/03/30 02:13:45;;;;;;;39.08;10.63;;;6.20;64.60;;;;;;9188534;19;20022;-67
2022/03/30 02:16:50;;;;;;;30.35;11.40;;;6.20;64.60;;;;;;9188912;19;20022;-66
2022/03/30 02:19:56;;;;;;;34.25;11.07;;;6.20;64.60;;;;;;9185647;19;20022;-65
2022/03/30 02:23:01;;;;;;;32.90;11.13;;;6.20;64.70;;;;;;9184216;19;20047;-66
2022/03/30 02:26:09;;;;;;;26.08;10.85;;;6.20;64.70;;;;;;9188084;19;20070;-67
2022/03/30 02:29:14;;;;;;;25.02;9.35;;;6.20;64.80;;;;;;9186361;19;20483;-66
2022/03/30 02:32:21;;;;;;;32.17;11.15;;;6.10;65.40;;;;;;9183335;19;20019;-64
2022/03/30 02:35:27;;;;;;;38.20;11.35;;;6.10;64.80;;;;;;9187025;19;20472;-68
2022/03/30 02:38:35;;;;;;;32.67;12.10;;;6.10;64.90;;;;;;9185480;19;20376;-65
2022/03/30 02:41:42;;;;;;;28.02;10.88;;;6.10;64.90;;;;;;9187318;19;20030;-67
2022/03/30 02:44:48;;;;;;;33.95;11.85;;;6.10;64.90;;;;;;9181939;19;20021;-65
2022/03/30 02:51:11;;;;;;;29.67;11.55;;;6.10;65.10;;;;;;9184899;19;20010;-67
2022/03/30 02:54:16;;;;;;;32.20;11.50;;;6.10;65.00;;;;;;9183295;19;20023;-66
2022/03/30 02:57:24;;;;;;;39.10;12.63;;;6.10;65.10;;;;;;9186213;19;20014;-69
2022/03/30 03:00:28;;;;;;;31.25;10.77;;;6.10;65.20;;;;;;9186079;19;20010;-66
2022/03/30 03:03:33;;;;;;;30.48;11.25;;;6.10;65.20;;;;;;9187028;19;20022;-66
2022/03/30 03:06:39;;;;;;;22.00;11.30;;;6.10;65.20;;;;;;9185755;19;20011;-66
2022/03/30 03:09:44;;;;;;;32.75;11.80;;;6.10;65.20;;;;;;9184666;19;20090;-67
2022/03/30 03:12:52;;;;;;;34.80;13.63;;;6.10;65.30;;;;;;9184667;19;20191;-66
2022/03/30 03:15:57;;;;;;;35.60;12.43;;;6.10;65.30;;;;;;9185661;19;20360;-64
2022/03/30 03:19:02;;;;;;;29.77;11.00;;;6.10;65.30;;;;;;9183797;19;20042;-65
2022/03/30 03:22:07;;;;;;;34.20;11.32;;;6.00;65.40;;;;;;9185413;19;20018;-68
2022/03/30 03:25:14;;;;;;;29.67;12.05;;;6.10;65.40;;;;;;9185275;19;20030;-67
2022/03/30 03:28:22;;;;;;;26.17;11.73;;;6.10;65.50;;;;;;9183192;19;20014;-66
2022/03/30 03:31:27;;;;;;;36.65;11.82;;;6.10;65.40;;;;;;9179825;19;20021;-67
2022/03/30 03:34:32;;;;;;;32.78;11.50;;;6.10;65.40;;;;;;9182833;19;20021;-65
2022/03/30 03:37:37;;;;;;;29.42;11.13;;;6.00;65.40;;;;;;9184544;19;20106;-66
2022/03/30 03:40:42;;;;;;;33.55;11.35;;;6.10;65.50;;;;;;9184933;19;20021;-67
2022/03/30 03:43:50;;;;;;;31.90;11.93;;;6.00;65.50;;;;;;9183034;19;20017;-67
2022/03/30 03:46:56;;;;;;;33.72;11.73;;;6.10;65.60;;;;;;9182676;19;20022;-65
2022/03/30 03:50:02;;;;;;;29.83;10.93;;;6.10;65.60;;;;;;9183003;19;20491;-64
2022/03/30 03:53:07;;;;;;;32.10;11.00;;;6.00;65.50;;;;;;9184343;19;20479;-66
2022/03/30 03:56:13;;;;;;;27.13;10.55;;;6.00;65.50;;;;;;9182367;19;20426;-68
2022/03/30 03:59:20;;;;;;;32.70;12.27;;;6.00;65.60;;;;;;9181711;19;20022;-67
2022/03/30 04:02:26;;;;;;;29.80;11.48;;;6.00;65.60;;;;;;9182281;19;20014;-65
2022/03/30 04:05:32;;;;;;;35.92;12.30;;;5.90;65.50;;;;;;9181746;19;20503;-66
2022/03/30 04:08:37;;;;;;;35.67;11.38;;;6.00;65.60;;;;;;9180401;19;20011;-66
2022/03/30 04:11:42;;;;;;;28.38;11.65;;;5.90;65.60;;;;;;9182982;19;20539;-66
2022/03/30 04:14:50;;;;;;;26.60;10.05;;;5.90;65.60;;;;;;9180328;19;20018;-67
2022/03/30 04:17:57;;;;;;;21.90;10.95;;;5.90;65.60;;;;;;9183484;19;20014;-66
2022/03/30 04:21:02;;;;;;;32.85;10.93;;;5.80;65.50;;;;;;9182727;19;20014;-67
2022/03/30 04:24:08;;;;;;;31.73;10.70;;;5.80;65.50;;;;;;9182188;19;20014;-67
2022/03/30 04:27:13;;;;;;;30.50;10.70;;;5.70;65.50;;;;;;9181347;19;20030;-67
2022/03/30 04:30:23;;;;;;;25.90;10.85;;;5.70;65.50;;;;;;9178559;19;20018;-67
2022/03/30 04:33:28;;;;;;;29.70;11.43;;;5.70;65.60;;;;;;9180706;19;20017;-66
2022/03/30 04:36:33;;;;;;;27.65;12.18;;;5.70;65.60;;;;;;9183902;19;20090;-66
2022/03/30 04:39:37;;;;;;;27.75;10.98;;;5.60;65.60;;;;;;9177854;19;20029;-66
2022/03/30 04:42:43;;;;;;;31.27;11.73;;;5.60;65.70;;;;;;9182955;19;20011;-64
2022/03/30 04:45:50;;;;;;;29.55;12.32;;;5.50;65.60;;;;;;9181856;19;20015;-66
2022/03/30 04:48:56;;;;;;;30.60;10.85;;;5.50;65.70;;;;;;9191721;19;20332;-66
2022/03/30 04:52:02;;;;;;;27.75;10.93;;;5.50;65.70;;;;;;9189953;19;20045;-65
2022/03/30 04:55:10;;;;;;;27.90;11.43;;;5.40;65.70;;;;;;9187331;19;20474;-67
2022/03/30 04:58:15;;;;;;;35.33;11.02;;;5.40;65.70;;;;;;9189634;19;20015;-65
2022/03/30 05:01:22;;;;;;;35.85;12.00;;;5.40;65.80;;;;;;9191396;19;20017;-67
2022/03/30 05:04:29;;;;;;;26.65;11.10;;;5.30;65.80;;;;;;9190503;19;20010;-65
2022/03/30 05:07:34;;;;;;;29.85;11.25;;;5.30;65.80;;;;;;9188112;19;20011;-66
2022/03/30 05:10:40;;;;;;;40.38;13.43;;;5.20;65.80;;;;;;9190621;19;20029;-65
2022/03/30 05:13:45;;;;;;;39.85;12.43;;;5.20;65.90;;;;;;9188437;19;20028;-66
2022/03/30 05:16:52;;;;;;;39.40;14.68;;;5.20;66.00;;;;;;9187878;19;20105;-67
2022/03/30 05:19:58;;;;;;;33.15;14.95;;;5.10;66.00;;;;;;9189120;19;20475;-67
2022/03/30 05:23:03;;;;;;;39.08;14.63;;;5.10;66.10;;;;;;9190229;19;20042;-65
2022/03/30 05:26:08;;;;;;;31.90;12.15;;;5.10;66.10;;;;;;9189700;19;20021;-66
2022/03/30 05:29:14;;;;;;;33.65;13.35;;;5.10;66.20;;;;;;9186768;19;20023;-66
2022/03/30 05:32:21;;;;;;;40.63;12.45;;;5.10;66.30;;;;;;9185738;19;20037;-66
2022/03/30 05:35:26;;;;;;;34.95;14.00;;;5.10;66.40;;;;;;9184779;19;20022;-68
2022/03/30 05:38:31;;;;;;;38.95;14.10;;;5.10;66.40;;;;;;9188611;19;20002;-66
2022/03/30 05:41:37;;;;;;;29.25;13.00;;;5.10;66.40;;;;;;9188874;19;20010;-67
2022/03/30 05:44:42;;;;;;;44.85;13.85;;;5.10;66.50;;;;;;9187755;19;20034;-65
2022/03/30 05:47:49;;;;;;;34.90;13.50;;;5.10;66.50;;;;;;9189584;19;20021;-66
2022/03/30 05:50:55;;;;;;;27.55;12.48;;;5.10;66.60;;;;;;9188537;19;20360;-68
2022/03/30 05:54:00;;;;;;;35.53;13.80;;;5.10;66.60;;;;;;9188448;19;20098;-67
2022/03/30 05:57:05;;;;;;;43.97;14.15;;;5.10;66.60;;;;;;9189948;19;20455;-66
2022/03/30 06:00:12;;;;;;;40.33;14.88;;;5.10;66.70;;;;;;9186420;19;20014;-67
2022/03/30 06:03:20;;;;;;;34.55;13.25;;;5.20;66.80;;;;;;9187429;19;20018;-67
2022/03/30 06:06:25;;;;;;;39.75;13.15;;;5.20;66.80;;;;;;9185449;19;20360;-66
2022/03/30 06:09:33;;;;;;;47.72;16.23;;;5.20;66.80;;;;;;9183482;19;20014;-66
2022/03/30 06:12:52;;;;;;;43.95;13.98;;;5.20;66.90;;;;;;9186759;19;20045;-67
2022/03/30 06:15:57;;;;;;;40.80;14.30;;;5.20;66.80;;;;;;9176542;19;20017;-66
2022/03/30 06:19:05;;;;;;;43.78;13.98;;;5.30;66.90;;;;;;9180698;19;20022;-66
2022/03/30 06:22:11;;;;;;;38.22;14.15;;;5.30;67.00;;;;;;9181946;19;20367;-65
2022/03/30 06:25:16;;;;;;;52.13;15.45;;;5.30;67.00;;;;;;9181186;19;20288;-66
2022/03/30 06:28:24;;;;;;;35.45;13.90;;;5.30;67.00;;;;;;9179417;19;20520;-66
2022/03/30 06:31:29;;;;;;;41.88;17.92;;;5.40;67.10;;;;;;9175026;19;20022;-66
2022/03/30 06:34:37;;;;;;;44.95;17.13;;;5.40;67.20;;;;;;9178371;19;20024;-67
2022/03/30 06:37:42;;;;;;;46.92;16.13;;;5.40;67.20;;;;;;9178082;19;20036;-65
2022/03/30 06:40:48;;;;;;;37.75;14.88;;;5.40;67.20;;;;;;9175617;19;20052;-67
2022/03/30 06:43:54;;;;;;;38.00;13.27;;;5.50;67.30;;;;;;9167114;19;20010;-67
2022/03/30 06:46:59;;;;;;;30.73;12.82;;;5.50;67.30;;;;;;9181845;19;20082;-67
2022/03/30 06:50:08;;;;;;;39.60;13.48;;;5.50;67.40;;;;;;9185355;19;20371;-65
2022/03/30 06:53:13;;;;;;;36.13;14.60;;;5.60;67.60;;;;;;9186483;19;20015;-67
2022/03/30 06:56:18;;;;;;;39.17;14.77;;;5.60;67.50;;;;;;9185293;19;20387;-66
2022/03/30 06:59:23;;;;;;;36.10;12.45;;;5.70;67.60;;;;;;9184224;19;20015;-69
2022/03/30 07:02:28;;;;;;;36.97;14.23;;;5.70;67.70;;;;;;9186371;19;20046;-67
2022/03/30 07:05:37;;;;;;;35.70;14.20;;;5.80;67.80;;;;;;9185729;19;20014;-66
2022/03/30 07:11:59;;;;;;;43.88;14.73;;;5.90;67.80;;;;;;9183660;19;20018;-66
2022/03/30 07:15:05;;;;;;;35.88;14.50;;;5.90;67.80;;;;;;9184750;19;20011;-66
2022/03/30 07:18:10;;;;;;;36.75;13.77;;;6.00;67.90;;;;;;9184438;19;20015;-66
2022/03/30 07:21:18;;;;;;;39.50;15.38;;;6.00;67.90;;;;;;9185522;19;20021;-66
2022/03/30 07:24:23;;;;;;;37.40;14.48;;;6.10;67.90;;;;;;9183314;19;20025;-66
2022/03/30 07:27:28;;;;;;;36.55;13.52;;;6.10;67.90;;;;;;9182637;19;20042;-63
2022/03/30 07:30:34;;;;;;;35.63;14.70;;;6.20;68.00;;;;;;9178806;19;20018;-64
2022/03/30 07:33:39;;;;;;;44.53;14.65;;;6.30;68.00;;;;;;9184839;19;20029;-68
2022/03/30 07:36:48;;;;;;;47.50;15.48;;;6.30;68.10;;;;;;9183672;19;20010;-67
2022/03/30 07:39:53;;;;;;;34.88;14.50;;;6.30;68.10;;;;;;9185155;19;20358;-67
2022/03/30 07:42:59;;;;;;;35.53;14.60;;;6.40;68.10;;;;;;9183363;19;20034;-66
2022/03/30 07:46:04;;;;;;;45.13;14.70;;;6.50;68.10;;;;;;9182260;19;20010;-67
2022/03/30 07:49:09;;;;;;;44.55;16.25;;;6.50;68.10;;;;;;9182297;19;20014;-68
2022/03/30 07:52:17;;;;;;;41.33;14.48;;;6.60;68.20;;;;;;9184004;19;20026;-68
2022/03/30 07:55:22;;;;;;;42.40;14.98;;;6.60;68.30;;;;;;9184143;19;20746;-66
2022/03/30 07:58:27;;;;;;;40.58;15.88;;;6.70;68.30;;;;;;9182124;19;20011;-66
2022/03/30 08:01:32;;;;;;;45.35;17.30;;;6.80;68.30;;;;;;9181358;19;20366;-67
2022/03/30 08:04:37;;;;;;;45.60;16.38;;;6.80;68.30;;;;;;9182860;19;20014;-68
2022/03/30 08:07:49;;;;;;;47.38;15.98;;;6.90;68.40;;;;;;9179546;19;20014;-64
2022/03/30 08:10:54;;;;;;;42.47;16.92;;;7.00;68.60;;;;;;9183340;19;20019;-67
2022/03/30 08:13:59;;;;;;;36.30;14.45;;;7.00;68.50;;;;;;9182332;19;20620;-67
2022/03/30 08:17:05;;;;;;;36.78;13.25;;;7.10;68.60;;;;;;9180465;19;20511;-67
2022/03/30 08:22:25;;;;;;;25.58;12.02;;;7.20;68.70;;;;;;9181636;19;20441;-67
2022/03/30 08:23:39;;;;;;;33.70;13.68;;;7.30;68.70;;;;;;9179622;19;20019;-66
2022/03/30 08:26:44;;;;;;;33.35;12.35;;;7.40;68.70;;;;;;9182859;19;20025;-66
2022/03/30 08:29:49;;;;;;;31.42;12.25;;;7.50;68.80;;;;;;9178437;19;20010;-68
2022/03/30 08:32:55;;;;;;;28.00;11.98;;;7.50;68.70;;;;;;9180647;19;20010;-68
2022/03/30 08:36:00;;;;;;;30.05;12.55;;;7.60;68.80;;;;;;9181960;19;20010;-67
2022/03/30 08:39:11;;;;;;;28.98;11.73;;;7.70;68.80;;;;;;9180566;19;20014;-66
2022/03/30 08:42:17;;;;;;;32.20;11.88;;;7.80;69.00;;;;;;9182301;19;20026;-68
2022/03/30 08:45:22;;;;;;;39.58;11.95;;;7.90;68.90;;;;;;9181719;19;20464;-69
2022/03/30 08:48:27;;;;;;;33.00;11.88;;;8.00;69.00;;;;;;9182081;19;20021;-69
2022/03/30 08:51:35;;;;;;;24.55;10.52;;;8.10;69.00;;;;;;9179560;19;20019;-67
2022/03/30 08:54:44;;;;;;;32.63;10.60;;;8.20;68.80;;;;;;9182602;19;20463;-70
2022/03/30 08:57:49;;;;;;;22.10;10.00;;;8.40;68.80;;;;;;9178493;19;20018;-68
2022/03/30 09:00:54;;;;;;;22.65;9.10;;;8.50;68.70;;;;;;9182629;19;20464;-67
2022/03/30 09:04:00;;;;;;;25.80;9.60;;;8.60;68.60;;;;;;9179697;19;20018;-68
2022/03/30 09:07:07;;;;;;;22.02;8.57;;;8.70;68.60;;;;;;9181200;19;20023;-67
2022/03/30 09:10:21;;;;;;;17.40;8.13;;;8.70;68.40;;;;;;9180318;19;20114;-68
2022/03/30 09:13:26;;;;;;;14.82;8.10;;;8.80;68.40;;;;;;9179693;19;20014;-69
2022/03/30 09:16:42;;;;;;;25.63;8.80;;;8.90;68.30;;;;;;9179268;19;20475;-67
2022/03/30 09:19:47;;;;;;;25.50;9.18;;;9.00;68.90;;;;;;9178702;19;20030;-69
2022/03/30 09:22:54;;;;;;;18.25;9.10;;;9.10;68.30;;;;;;9179822;19;20342;-71
2022/03/30 09:26:22;;;;;;;16.85;8.52;;;9.20;68.30;;;;;;9178269;19;20110;-67
2022/03/30 09:29:29;;;;;;;20.23;8.82;;;9.20;68.10;;;;;;9173714;19;20499;-68
2022/03/30 09:32:56;;;;;;;17.55;8.68;;;9.30;68.00;;;;;;9182127;19;20018;-69
2022/03/30 09:36:01;;;;;;;19.83;8.18;;;9.40;67.90;;;;;;9187312;19;20384;-66
2022/03/30 09:39:08;;;;;;;19.88;9.50;;;9.50;67.90;;;;;;9188944;19;20014;-69
2022/03/30 09:42:19;;;;;;;23.25;10.18;;;9.50;67.80;;;;;;9188141;19;20018;-68
2022/03/30 09:45:30;;;;;;;19.50;8.05;;;9.60;67.80;;;;;;9187448;19;20056;-68
2022/03/30 09:48:39;;;;;;;9.88;5.57;;;9.60;67.70;;;;;;9189700;19;20475;-70
2022/03/30 09:51:57;;;;;;;5.82;2.58;;;9.70;67.60;;;;;;9189665;19;20019;-68
2022/03/30 09:55:04;;;;;;;4.40;2.10;;;9.70;67.50;;;;;;9187494;19;20010;-69
2022/03/30 09:58:12;;;;;;;6.43;2.80;;;9.70;67.40;;;;;;9185983;19;20015;-68
2022/03/30 10:01:20;;;;;;;4.70;2.67;;;9.70;67.30;;;;;;9189827;19;20503;-68
2022/03/30 10:04:26;;;;;;;5.80;2.00;;;9.70;67.20;;;;;;9188434;19;20353;-69
2022/03/30 10:07:32;;;;;;;2.40;1.85;;;9.70;67.20;;;;;;9187618;19;20043;-69
2022/03/30 10:10:37;;;;;;;5.65;2.55;;;9.60;67.10;;;;;;9187324;19;20491;-68
2022/03/30 10:13:46;;;;;;;3.75;1.70;;;9.60;67.00;;;;;;9188149;19;20459;-69
2022/03/30 10:17:11;;;;;;;3.03;1.70;;;9.60;67.00;;;;;;9183776;19;20019;-67
2022/03/30 10:20:16;;;;;;;2.83;1.70;;;9.60;67.00;;;;;;9187068;19;20025;-67
2022/03/30 10:23:30;;;;;;;3.17;1.25;;;9.60;67.00;;;;;;9186054;19;20074;-68
2022/03/30 10:26:43;;;;;;;1.52;1.40;;;9.60;66.90;;;;;;9188352;19;20011;-69
2022/03/30 10:29:56;;;;;;;1.67;1.13;;;9.60;67.00;;;;;;9180574;19;20047;-67
2022/03/30 10:33:03;;;;;;;5.93;1.45;;;9.60;67.00;;;;;;9183313;19;20026;-68
2022/03/30 10:36:25;;;;;;;1.77;1.13;;;9.60;66.90;;;;;;9179535;19;20021;-68
2022/03/30 10:39:30;;;;;;;1.55;1.23;;;9.60;66.80;;;;;;9180982;19;20015;-66
2022/03/30 10:43:04;;;;;;;1.65;1.23;;;9.60;66.80;;;;;;9180240;19;20046;-67
2022/03/30 10:46:14;;;;;;;2.05;1.00;;;9.70;66.70;;;;;;9180988;19;20019;-68
2022/03/30 10:49:39;;;;;;;1.85;1.00;;;9.70;66.50;;;;;;9184896;19;20014;-69
2022/03/30 10:52:47;;;;;;;0.85;0.80;;;9.70;66.40;;;;;;9185326;19;20018;-68
2022/03/30 10:55:52;;;;;;;2.25;1.20;;;9.70;66.40;;;;;;9185403;19;20010;-69
2022/03/30 10:59:16;;;;;;;2.80;1.27;;;9.80;66.30;;;;;;9182505;19;20014;-68
2022/03/30 11:02:23;;;;;;;1.52;1.30;;;9.80;66.20;;;;;;9185412;19;20010;-69
2022/03/30 11:05:30;;;;;;;8.05;1.00;;;9.90;66.20;;;;;;9184776;19;20085;-69
2022/03/30 11:08:57;;;;;;;4.60;2.35;;;9.90;66.10;;;;;;9182745;19;20026;-68
2022/03/30 11:12:07;;;;;;;3.70;1.35;;;10.00;65.90;;;;;;9182793;19;20025;-67
2022/03/30 11:15:12;;;;;;;3.67;1.60;;;10.00;65.90;;;;;;9186858;19;20011;-70
2022/03/30 11:18:21;;;;;;;2.78;1.00;;;10.10;65.90;;;;;;9182643;19;20015;-69
2022/03/30 11:21:28;;;;;;;0.63;0.63;;;10.20;65.70;;;;;;9183290;19;20352;-69
2022/03/30 11:24:33;;;;;;;2.80;0.70;;;10.20;65.60;;;;;;9185904;19;20014;-69
2022/03/30 11:27:39;;;;;;;0.70;0.65;;;10.30;65.50;;;;;;9183666;19;20010;-69
2022/03/30 11:30:45;;;;;;;1.40;0.88;;;10.30;65.30;;;;;;9181653;19;20336;-70
2022/03/30 11:34:24;;;;;;;0.85;0.68;;;10.40;65.20;;;;;;9184045;19;20488;-69
2022/03/30 11:37:31;;;;;;;2.15;1.08;;;10.40;64.80;;;;;;9182365;19;20041;-70
2022/03/30 11:40:44;;;;;;;0.93;0.77;;;10.40;64.90;;;;;;9185356;19;20010;-68
2022/03/30 11:47:09;;;;;;;1.50;1.13;;;10.50;64.90;;;;;;9183843;19;20026;-67
2022/03/30 11:50:20;;;;;;;1.55;0.90;;;10.60;64.80;;;;;;9182890;19;20006;-69
2022/03/30 11:53:28;;;;;;;0.80;0.80;;;10.70;64.70;;;;;;9184466;19;20011;-69
2022/03/30 11:56:34;;;;;;;1.80;0.90;;;10.80;64.60;;;;;;9182328;19;20014;-67
2022/03/30 11:59:39;;;;;;;2.72;1.15;;;10.80;65.00;;;;;;9183444;19;20494;-68
2022/03/30 12:02:45;;;;;;;2.33;0.93;;;10.90;64.30;;;;;;9182916;19;20474;-69
2022/03/30 12:05:55;;;;;;;2.25;0.80;;;11.00;64.20;;;;;;9182544;19;20070;-66
2022/03/30 12:09:00;;;;;;;7.35;1.30;;;11.00;64.00;;;;;;9179351;19;20019;-67
2022/03/30 12:12:08;;;;;;;1.42;0.80;;;11.10;64.00;;;;;;9181214;19;20010;-68
2022/03/30 12:15:15;;;;;;;1.20;0.80;;;11.20;63.90;;;;;;9182420;19;20011;-70
2022/03/30 12:18:21;;;;;;;2.33;1.00;;;11.20;63.70;;;;;;9181203;19;20014;-70
2022/03/30 12:21:30;;;;;;;2.10;0.95;;;11.30;63.70;;;;;;9181616;19;20375;-69
2022/03/30 12:24:36;;;;;;;2.40;0.93;;;11.30;63.60;;;;;;9181985;19;20014;-69
2022/03/30 12:27:42;;;;;;;0.65;0.60;;;11.30;63.50;;;;;;9179709;19;20019;-68
2022/03/30 12:30:47;;;;;;;2.63;1.10;;;11.40;63.50;;;;;;9177724;19;20017;-69
2022/03/30 12:33:53;;;;;;;1.73;0.90;;;11.40;63.30;;;;;;9181853;19;20014;-69
2022/03/30 12:37:03;;;;;;;1.63;0.90;;;11.40;63.20;;;;;;9181469;19;20043;-68
2022/03/30 12:40:14;;;;;;;2.20;1.13;;;11.40;63.10;;;;;;9181643;19;20362;-68
2022/03/30 12:43:27;;;;;;;1.45;1.05;;;11.50;63.00;;;;;;9181337;19;20048;-66
2022/03/30 12:46:32;;;;;;;5.07;1.00;;;11.50;62.90;;;;;;9183124;19;20471;-67
2022/03/30 12:49:39;;;;;;;1.85;1.17;;;11.50;63.00;;;;;;9182995;19;20341;-66
2022/03/30 12:52:49;;;;;;;1.60;0.80;;;11.50;62.80;;;;;;9183110;19;20534;-69
2022/03/30 12:55:54;;;;;;;4.72;1.38;;;11.50;62.70;;;;;;9180165;19;20011;-68
2022/03/30 12:59:01;;;;;;;2.13;1.15;;;11.60;62.70;;;;;;9180223;19;20015;-68
2022/03/30 13:02:24;;;;;;;2.75;1.15;;;11.60;62.60;;;;;;9182011;19;20015;-68
2022/03/30 13:05:30;;;;;;;5.93;1.30;;;11.60;62.30;;;;;;9178414;19;20026;-69
2022/03/30 13:08:38;;;;;;;2.80;1.10;;;11.70;62.50;;;;;;9184048;19;20022;-69
2022/03/30 13:11:45;;;;;;;4.82;1.10;;;11.70;62.30;;;;;;9191870;19;20138;-67
2022/03/30 13:14:53;;;;;;;0.80;0.75;;;11.70;62.20;;;;;;9189143;19;20015;-69
2022/03/30 13:18:01;;;;;;;2.28;0.80;;;11.70;62.00;;;;;;9189780;19;20050;-69
2022/03/30 13:21:11;;;;;;;3.67;1.00;;;11.70;62.00;;;;;;9187948;19;20010;-70
2022/03/30 13:24:21;;;;;;;8.07;1.05;;;11.70;61.80;;;;;;9189034;19;20022;-67
2022/03/30 13:27:26;;;;;;;2.83;1.00;;;11.70;61.70;;;;;;9187999;19;20015;-67
2022/03/30 13:30:32;;;;;;;4.25;1.52;;;11.80;61.70;;;;;;9184873;19;20015;-68
2022/03/30 13:33:37;;;;;;;3.72;0.90;;;11.80;61.60;;;;;;9190882;19;20039;-68
2022/03/30 13:36:43;;;;;;;2.10;1.30;;;11.80;61.60;;;;;;9188674;19;20018;-67
2022/03/30 13:39:50;;;;;;;8.45;1.17;;;11.80;61.40;;;;;;9185005;19;20006;-68
2022/03/30 13:42:55;;;;;;;2.55;1.20;;;11.80;61.30;;;;;;9188499;19;20026;-68
2022/03/30 13:46:00;;;;;;;3.33;1.00;;;11.80;61.30;;;;;;9188555;19;20453;-67
2022/03/30 13:49:06;;;;;;;2.55;1.10;;;11.80;61.20;;;;;;9188999;19;20778;-67
2022/03/30 13:52:14;;;;;;;3.35;0.57;;;11.80;61.10;;;;;;9188542;19;20041;-67
2022/03/30 13:55:22;;;;;;;1.15;0.95;;;11.70;61.10;;;;;;9188319;19;20011;-66
2022/03/30 13:58:26;;;;;;;1.67;0.90;;;11.70;60.90;;;;;;9186820;19;20017;-68
2022/03/30 14:01:32;;;;;;;1.88;1.00;;;11.70;61.10;;;;;;9189549;19;20014;-69
2022/03/30 14:04:38;;;;;;;3.13;1.05;;;11.70;61.00;;;;;;9188449;19;20738;-69
2022/03/30 14:07:43;;;;;;;5.70;1.00;;;11.70;60.90;;;;;;9185978;19;20029;-68
2022/03/30 14:10:51;;;;;;;2.03;1.13;;;11.70;60.80;;;;;;9187384;19;20026;-68
2022/03/30 14:13:56;;;;;;;1.42;1.02;;;11.60;60.70;;;;;;9187093;19;20017;-67
2022/03/30 14:17:02;;;;;;;5.40;1.17;;;11.60;60.80;;;;;;9189022;19;20025;-68
2022/03/30 14:20:09;;;;;;;1.27;0.95;;;11.60;60.80;;;;;;9181584;19;20019;-69
2022/03/30 14:23:14;;;;;;;6.20;2.05;;;11.60;61.40;;;;;;9186421;19;20025;-67
2022/03/30 14:26:22;;;;;;;1.98;1.50;;;11.50;60.70;;;;;;9187100;19;20082;-67
2022/03/30 14:29:27;;;;;;;1.60;1.10;;;11.50;60.60;;;;;;9182523;19;20331;-68
2022/03/30 14:32:32;;;;;;;5.43;1.50;;;11.50;60.70;;;;;;9187865;19;20360;-68
2022/03/30 14:35:40;;;;;;;2.58;1.20;;;11.50;60.60;;;;;;9186326;19;20011;-68
2022/03/30 14:38:45;;;;;;;2.10;1.17;;;11.50;60.50;;;;;;9185133;19;20014;-69
2022/03/30 14:41:55;;;;;;;1.88;1.10;;;11.60;60.50;;;;;;9186432;19;20018;-68
2022/03/30 14:45:01;;;;;;;2.22;1.20;;;11.50;60.40;;;;;;9187353;19;20027;-68
2022/03/30 14:48:08;;;;;;;4.03;1.23;;;11.50;60.40;;;;;;9185843;19;20750;-69
2022/03/30 14:51:13;;;;;;;1.20;1.10;;;11.50;60.40;;;;;;9186989;19;20018;-69
2022/03/30 14:54:18;;;;;;;4.15;1.20;;;11.50;60.40;;;;;;9187463;19;20015;-68
2022/03/30 14:57:26;;;;;;;1.90;1.00;;;11.50;60.40;;;;;;9184395;19;20023;-68
2022/03/30 15:00:31;;;;;;;1.70;1.10;;;11.40;60.30;;;;;;9182390;19;20019;-69
2022/03/30 15:03:36;;;;;;;1.25;0.93;;;11.40;60.40;;;;;;9183337;19;20047;-69
2022/03/30 15:06:42;;;;;;;2.15;1.00;;;11.40;60.40;;;;;;9185113;19;20007;-67
2022/03/30 15:09:47;;;;;;;2.88;1.20;;;11.30;60.30;;;;;;9178213;19;20015;-66
2022/03/30 15:12:55;;;;;;;1.40;1.02;;;11.30;60.30;;;;;;9176889;19;20446;-67
2022/03/30 15:16:00;;;;;;;1.80;0.98;;;11.30;60.20;;;;;;9176274;19;20015;-70
2022/03/30 15:19:05;;;;;;;1.30;0.90;;;11.30;60.20;;;;;;9173538;19;20022;-70
2022/03/30 15:22:10;;;;;;;2.08;1.30;;;11.30;60.20;;;;;;9178751;19;20018;-69
2022/03/30 15:25:16;;;;;;;7.63;1.67;;;11.30;60.10;;;;;;9176676;19;20083;-67
2022/03/30 15:28:24;;;;;;;3.08;1.60;;;11.20;60.00;;;;;;9177461;19;20683;-67
2022/03/30 15:31:31;;;;;;;4.90;1.30;;;11.20;60.00;;;;;;9171415;19;20014;-68
2022/03/30 15:34:37;;;;;;;2.50;1.50;;;11.20;60.00;;;;;;9177900;19;20010;-67
2022/03/30 15:37:42;;;;;;;2.60;1.33;;;11.20;60.10;;;;;;9178226;19;20014;-67
2022/03/30 15:40:47;;;;;;;3.67;1.67;;;11.20;60.00;;;;;;9174483;19;20022;-66
2022/03/30 15:43:55;;;;;;;5.18;1.92;;;11.20;60.10;;;;;;9176739;19;20836;-69
2022/03/30 15:46:59;;;;;;;2.65;1.80;;;11.10;60.00;;;;;;9175757;19;20453;-69
2022/03/30 15:50:05;;;;;;;3.88;2.00;;;11.10;60.70;;;;;;9180148;19;20011;-69
2022/03/30 15:53:10;;;;;;;2.85;1.77;;;11.10;60.10;;;;;;9182770;19;20015;-71
2022/03/30 15:56:17;;;;;;;2.85;1.60;;;11.00;60.10;;;;;;9182526;19;20010;-70
2022/03/30 15:59:25;;;;;;;4.25;1.85;;;11.00;60.00;;;;;;9181700;19;20014;-69
2022/03/30 16:02:30;;;;;;;2.88;1.48;;;10.90;60.00;;;;;;9183449;19;20010;-65
2022/03/30 16:05:37;;;;;;;2.58;1.90;;;10.90;60.00;;;;;;9182574;19;20135;-65
2022/03/30 16:12:16;;;;;;;2.50;1.77;;;10.80;60.00;;;;;;9179495;19;20011;-67
2022/03/30 16:15:24;;;;;;;2.72;1.80;;;10.80;60.10;;;;;;9179660;19;20022;-68
2022/03/30 16:18:29;;;;;;;3.63;1.77;;;10.70;60.10;;;;;;9182188;19;20014;-68
2022/03/30 16:21:34;;;;;;;3.45;1.95;;;10.70;60.20;;;;;;9182798;19;20499;-67
2022/03/30 16:24:39;;;;;;;2.05;1.77;;;10.70;60.20;;;;;;9183136;19;20006;-68
2022/03/30 16:27:45;;;;;;;3.90;2.10;;;10.70;60.20;;;;;;9181716;19;20476;-68